Time;durP1;ratioP1;P1;durP2;ratioP2;P2;SDS_P1;SDS_P2;PMS_P1;PMS_P2;Temp;Humidity;BMP_temperature;BMP_pressure;BME280_temperature;BME280_humidity;BME280_pressure;Samples;Min_cycle;Max_cycle;Signal;HPM_P1;HPM_P2
2022/05/19 00:00:35;;;;;;;5.53;2.50;;;;;;;;;;7391571;19;20034;-94
2022/05/19 00:03:00;;;;;;;5.68;2.78;;;;;;;;;;7387873;19;20003;-93
2022/05/19 00:05:26;;;;;;;7.18;2.92;;;;;;;;;;7390894;19;20038;-94
2022/05/19 00:07:51;;;;;;;7.67;2.70;;;;;;;;;;7387772;19;19998;-94
2022/05/19 00:10:16;;;;;;;7.13;2.50;;;;;;;;;;7390160;19;20256;-93
2022/05/19 00:12:42;;;;;;;6.78;2.50;;;;;;;;;;7389579;19;20002;-95
2022/05/19 00:15:07;;;;;;;6.68;2.97;;;;;;;;;;7386685;19;20009;-94
2022/05/19 00:17:32;;;;;;;11.45;3.20;;;;;;;;;;7385804;19;20066;-93
2022/05/19 00:19:58;;;;;;;8.77;2.90;;;;;;;;;;7383114;19;20037;-94
2022/05/19 00:22:23;;;;;;;6.18;2.53;;;;;;;;;;7389245;19;20011;-95
2022/05/19 00:24:48;;;;;;;5.10;2.70;;;;;;;;;;7389358;19;20075;-93
2022/05/19 00:27:14;;;;;;;7.15;2.95;;;;;;;;;;7388809;19;20034;-94
2022/05/19 00:29:39;;;;;;;9.57;2.80;;;;;;;;;;7390614;19;20078;-95
2022/05/19 00:32:05;;;;;;;8.97;2.97;;;;;;;;;;7393687;19;20010;-94
2022/05/19 00:34:30;;;;;;;10.43;3.15;;;;;;;;;;7391093;19;20262;-94
2022/05/19 00:36:56;;;;;;;7.83;3.17;;;;;;;;;;7396384;19;20347;-94
2022/05/19 00:39:21;;;;;;;10.73;2.75;;;;;;;;;;7392917;19;20597;-94
2022/05/19 00:41:47;;;;;;;5.82;2.83;;;;;;;;;;7394898;19;19999;-94
2022/05/19 00:44:12;;;;;;;9.50;3.25;;;;;;;;;;7393604;19;20014;-93
2022/05/19 00:46:44;;;;;;;8.25;3.03;;;;;;;;;;7392994;19;19995;-95
2022/05/19 00:49:15;;;;;;;7.68;3.15;;;;;;;;;;7392660;19;20014;-93
2022/05/19 00:51:48;;;;;;;6.43;3.25;;;;;;;;;;7395422;19;20013;-94
2022/05/19 00:54:21;;;;;;;7.18;3.40;;;;;;;;;;7393151;19;20010;-94
2022/05/19 00:56:50;;;;;;;8.15;2.90;;;;;;;;;;7394001;19;20002;-94
2022/05/19 00:59:25;;;;;;;6.35;2.97;;;;;;;;;;7393404;19;20034;-95
2022/05/19 01:01:50;;;;;;;7.72;3.10;;;;;;;;;;7392739;19;20011;-95
2022/05/19 01:04:18;;;;;;;7.45;2.80;;;;;;;;;;7390433;19;20015;-95
2022/05/19 01:06:45;;;;;;;8.43;3.17;;;;;;;;;;7393956;19;20002;-95
2022/05/19 01:09:12;;;;;;;8.35;3.50;;;;;;;;;;7389797;19;20007;-95
2022/05/19 01:11:38;;;;;;;7.63;2.72;;;;;;;;;;7398697;19;20309;-96
2022/05/19 01:14:04;;;;;;;10.88;3.08;;;;;;;;;;7420697;19;19994;-96
2022/05/19 01:16:30;;;;;;;6.35;3.28;;;;;;;;;;7424824;19;19998;-96
2022/05/19 01:18:55;;;;;;;6.57;3.00;;;;;;;;;;7420731;19;20075;-96
2022/05/19 01:21:22;;;;;;;7.53;3.28;;;;;;;;;;7423809;19;20462;-96
2022/05/19 01:23:50;;;;;;;8.80;3.42;;;;;;;;;;7425665;19;19979;-96
2022/05/19 01:26:27;;;;;;;6.30;3.03;;;;;;;;;;7423062;19;20010;-96
2022/05/19 01:28:53;;;;;;;8.82;3.15;;;;;;;;;;7423623;19;20006;-93
2022/05/19 01:31:36;;;;;;;10.73;3.10;;;;;;;;;;7424978;19;20018;-95
2022/05/19 01:34:04;;;;;;;7.32;2.92;;;;;;;;;;7424864;19;19993;-95
2022/05/19 01:36:29;;;;;;;8.80;3.15;;;;;;;;;;7422164;19;20346;-96
2022/05/19 01:38:59;;;;;;;9.57;3.22;;;;;;;;;;7393253;19;20022;-95
2022/05/19 01:41:29;;;;;;;6.90;3.13;;;;;;;;;;7394395;19;20017;-95
2022/05/19 01:44:10;;;;;;;6.63;3.03;;;;;;;;;;7398709;19;20023;-96
2022/05/19 01:46:36;;;;;;;5.70;2.97;;;;;;;;;;7394536;19;20011;-95
2022/05/19 01:49:07;;;;;;;5.88;3.17;;;;;;;;;;7395511;19;19995;-95
2022/05/19 01:51:35;;;;;;;8.45;3.00;;;;;;;;;;7398758;19;20014;-95
2022/05/19 01:54:06;;;;;;;5.35;3.30;;;;;;;;;;7396328;19;20027;-96
2022/05/19 01:56:35;;;;;;;7.22;3.30;;;;;;;;;;7389840;19;20399;-96
2022/05/19 01:59:19;;;;;;;6.50;3.33;;;;;;;;;;7392763;19;20204;-95
2022/05/19 02:01:48;;;;;;;7.38;3.25;;;;;;;;;;7392323;19;20014;-94
2022/05/19 02:04:19;;;;;;;7.03;3.30;;;;;;;;;;7391378;19;20018;-95
2022/05/19 02:06:51;;;;;;;5.82;3.08;;;;;;;;;;7391802;19;20006;-95
2022/05/19 02:09:19;;;;;;;7.55;2.80;;;;;;;;;;7391100;19;20017;-95
2022/05/19 02:11:48;;;;;;;5.38;2.70;;;;;;;;;;7386339;19;20029;-96
2022/05/19 02:14:16;;;;;;;6.63;2.88;;;;;;;;;;7388385;19;20007;-95
2022/05/19 02:16:43;;;;;;;5.57;3.15;;;;;;;;;;7390333;19;20006;-95
2022/05/19 02:19:10;;;;;;;7.20;3.30;;;;;;;;;;7385445;19;20022;-95
2022/05/19 02:21:36;;;;;;;6.85;3.08;;;;;;;;;;7388855;19;20015;-94
2022/05/19 02:24:01;;;;;;;7.25;3.40;;;;;;;;;;7392647;19;20017;-95
2022/05/19 02:26:34;;;;;;;8.10;3.30;;;;;;;;;;7390254;19;20042;-95
2022/05/19 02:29:01;;;;;;;6.60;3.10;;;;;;;;;;7393113;19;19995;-95
2022/05/19 02:31:27;;;;;;;8.00;3.38;;;;;;;;;;7389341;19;20018;-96
2022/05/19 02:33:52;;;;;;;7.00;3.30;;;;;;;;;;7389133;19;20030;-95
2022/05/19 02:36:18;;;;;;;7.32;3.25;;;;;;;;;;7389885;19;20019;-94
2022/05/19 02:38:43;;;;;;;6.47;3.30;;;;;;;;;;7392190;19;20006;-95
2022/05/19 02:41:08;;;;;;;7.75;3.50;;;;;;;;;;7390230;19;20014;-96
2022/05/19 02:43:34;;;;;;;8.05;3.15;;;;;;;;;;7392636;19;20005;-95
2022/05/19 02:45:59;;;;;;;6.57;3.50;;;;;;;;;;7391126;19;20011;-95
2022/05/19 02:48:24;;;;;;;7.32;3.30;;;;;;;;;;7387654;19;20432;-95
2022/05/19 02:50:50;;;;;;;11.50;3.47;;;;;;;;;;7391108;19;20210;-95
2022/05/19 02:53:16;;;;;;;9.60;3.20;;;;;;;;;;7388782;19;20015;-95
2022/05/19 02:55:42;;;;;;;7.07;3.38;;;;;;;;;;7386747;19;20057;-95
2022/05/19 02:58:07;;;;;;;8.10;3.50;;;;;;;;;;7388876;19;20500;-95
2022/05/19 03:00:33;;;;;;;7.82;3.78;;;;;;;;;;7391484;19;20353;-95
2022/05/19 03:02:58;;;;;;;8.32;3.40;;;;;;;;;;7386741;19;20460;-96
2022/05/19 03:05:26;;;;;;;9.32;3.85;;;;;;;;;;7389992;19;20002;-95
2022/05/19 03:07:51;;;;;;;7.63;3.10;;;;;;;;;;7390226;19;20014;-94
2022/05/19 03:10:16;;;;;;;7.57;3.90;;;;;;;;;;7390165;19;20029;-95
2022/05/19 03:12:42;;;;;;;7.88;3.72;;;;;;;;;;7389632;19;20021;-95
2022/05/19 03:15:07;;;;;;;9.50;3.30;;;;;;;;;;7388704;19;19999;-95
2022/05/19 03:17:33;;;;;;;9.20;4.07;;;;;;;;;;7390441;19;20266;-95
2022/05/19 03:19:58;;;;;;;11.02;3.30;;;;;;;;;;7388727;19;19995;-94
2022/05/19 03:22:26;;;;;;;8.68;3.70;;;;;;;;;;7390190;19;20070;-94
2022/05/19 03:24:52;;;;;;;7.68;3.42;;;;;;;;;;7388226;19;20011;-94
2022/05/19 03:27:19;;;;;;;8.10;3.75;;;;;;;;;;7390993;19;20001;-95
2022/05/19 03:29:45;;;;;;;6.68;3.35;;;;;;;;;;7389714;19;20014;-94
2022/05/19 03:32:11;;;;;;;8.32;3.75;;;;;;;;;;7390966;19;20352;-94
2022/05/19 03:34:36;;;;;;;7.47;3.20;;;;;;;;;;7388325;19;20015;-94
2022/05/19 03:37:02;;;;;;;7.40;3.50;;;;;;;;;;7387214;19;20637;-93
2022/05/19 03:39:27;;;;;;;7.47;3.35;;;;;;;;;;7392162;19;19991;-94
2022/05/19 03:41:52;;;;;;;6.03;3.47;;;;;;;;;;7387414;19;20009;-93
2022/05/19 03:44:19;;;;;;;6.85;3.22;;;;;;;;;;7390803;19;20026;-95
2022/05/19 03:46:44;;;;;;;6.88;3.20;;;;;;;;;;7388128;19;20018;-94
2022/05/19 03:49:13;;;;;;;8.75;3.60;;;;;;;;;;7389279;19;20017;-96
2022/05/19 03:51:39;;;;;;;8.73;3.83;;;;;;;;;;7392829;19;20019;-95
2022/05/19 03:54:06;;;;;;;6.85;3.10;;;;;;;;;;7402624;19;20078;-94
2022/05/19 03:56:32;;;;;;;9.73;3.92;;;;;;;;;;7394222;19;20466;-94
2022/05/19 03:58:57;;;;;;;10.50;3.40;;;;;;;;;;7389829;19;20022;-94
2022/05/19 04:01:23;;;;;;;8.10;3.67;;;;;;;;;;7389212;19;20011;-94
2022/05/19 04:03:49;;;;;;;9.40;3.65;;;;;;;;;;7389787;19;20003;-95
2022/05/19 04:06:14;;;;;;;7.10;3.00;;;;;;;;;;7396926;19;20014;-94
2022/05/19 04:08:39;;;;;;;7.95;3.55;;;;;;;;;;7397218;19;19999;-95
2022/05/19 04:11:05;;;;;;;6.32;3.25;;;;;;;;;;7398833;19;20018;-95
2022/05/19 04:13:30;;;;;;;7.73;3.67;;;;;;;;;;7396715;19;20014;-94
2022/05/19 04:15:55;;;;;;;8.98;3.38;;;;;;;;;;7396748;19;20274;-94
2022/05/19 04:18:22;;;;;;;6.70;3.35;;;;;;;;;;7395158;19;20479;-94
2022/05/19 04:20:49;;;;;;;7.28;3.45;;;;;;;;;;7396518;19;20026;-95
2022/05/19 04:23:14;;;;;;;8.88;3.65;;;;;;;;;;7396799;19;20010;-95
2022/05/19 04:25:40;;;;;;;6.13;3.30;;;;;;;;;;7397764;19;20017;-95
2022/05/19 04:28:06;;;;;;;6.55;3.60;;;;;;;;;;7396849;19;20058;-96
2022/05/19 04:30:31;;;;;;;8.10;3.85;;;;;;;;;;7395008;19;20367;-94
2022/05/19 04:32:57;;;;;;;8.73;4.65;;;;;;;;;;7395890;19;19995;-96
2022/05/19 04:35:23;;;;;;;6.45;3.35;;;;;;;;;;7393881;19;20472;-95
2022/05/19 04:37:48;;;;;;;9.35;3.78;;;;;;;;;;7398067;19;20006;-94
2022/05/19 04:40:15;;;;;;;7.70;3.60;;;;;;;;;;7397522;19;20023;-94
2022/05/19 04:42:40;;;;;;;9.35;3.38;;;;;;;;;;7395835;19;20477;-94
2022/05/19 04:45:07;;;;;;;6.95;3.30;;;;;;;;;;7396974;19;20027;-94
2022/05/19 04:47:32;;;;;;;7.78;3.55;;;;;;;;;;7396953;19;19991;-94
2022/05/19 04:49:58;;;;;;;6.60;3.03;;;;;;;;;;7395976;19;20023;-94
2022/05/19 04:52:24;;;;;;;6.10;3.40;;;;;;;;;;7396913;19;20006;-93
2022/05/19 04:54:49;;;;;;;8.05;3.47;;;;;;;;;;7396437;19;20014;-94
2022/05/19 04:57:15;;;;;;;6.65;3.70;;;;;;;;;;7395522;19;20468;-94
2022/05/19 04:59:41;;;;;;;7.35;3.28;;;;;;;;;;7396078;19;19994;-95
2022/05/19 05:02:06;;;;;;;7.43;3.45;;;;;;;;;;7392949;19;20017;-95
2022/05/19 05:04:31;;;;;;;6.50;3.03;;;;;;;;;;7396511;19;20306;-95
2022/05/19 05:06:58;;;;;;;7.30;3.20;;;;;;;;;;7397006;19;20010;-95
2022/05/19 05:09:23;;;;;;;6.65;3.40;;;;;;;;;;7396421;19;20009;-95
2022/05/19 05:11:49;;;;;;;7.60;3.70;;;;;;;;;;7391532;19;20041;-94
2022/05/19 05:14:16;;;;;;;6.20;3.40;;;;;;;;;;7391572;19;20790;-93
2022/05/19 05:16:42;;;;;;;7.07;3.30;;;;;;;;;;7394054;19;20076;-93
2022/05/19 05:19:08;;;;;;;8.05;3.67;;;;;;;;;;7394244;19;20022;-93
2022/05/19 05:21:33;;;;;;;6.80;3.63;;;;;;;;;;7395377;19;20010;-92
2022/05/19 05:23:59;;;;;;;7.05;3.78;;;;;;;;;;7396250;19;20098;-94
2022/05/19 05:26:24;;;;;;;9.05;3.53;;;;;;;;;;7394910;19;20095;-94
2022/05/19 05:28:50;;;;;;;8.98;3.97;;;;;;;;;;7393377;19;19999;-93
2022/05/19 05:31:15;;;;;;;7.35;3.67;;;;;;;;;;7397230;19;20010;-93
2022/05/19 05:33:40;;;;;;;11.05;4.30;;;;;;;;;;7393602;19;20495;-94
2022/05/19 05:36:06;;;;;;;8.40;4.20;;;;;;;;;;7393436;19;20083;-95
2022/05/19 05:38:33;;;;;;;8.77;3.85;;;;;;;;;;7386317;19;20014;-94
2022/05/19 05:40:59;;;;;;;10.45;4.50;;;;;;;;;;7394101;19;20018;-94
2022/05/19 05:43:24;;;;;;;6.63;3.85;;;;;;;;;;7394479;19;19999;-96
2022/05/19 05:45:51;;;;;;;19.02;4.22;;;;;;;;;;7392052;19;20042;-94
2022/05/19 05:48:17;;;;;;;12.25;3.67;;;;;;;;;;7388491;19;20007;-94
2022/05/19 05:50:43;;;;;;;8.77;4.00;;;;;;;;;;7396708;19;20023;-95
2022/05/19 05:53:09;;;;;;;7.30;3.40;;;;;;;;;;7401148;19;20015;-96
2022/05/19 05:55:35;;;;;;;8.57;4.05;;;;;;;;;;7404586;19;20059;-95
2022/05/19 05:58:04;;;;;;;10.35;3.55;;;;;;;;;;7405068;19;20010;-95
2022/05/19 06:00:29;;;;;;;6.40;3.30;;;;;;;;;;7418397;19;20023;-95
2022/05/19 06:02:56;;;;;;;11.00;3.67;;;;;;;;;;7422997;19;19994;-96
2022/05/19 06:05:22;;;;;;;9.77;3.75;;;;;;;;;;7417932;19;19986;-95
2022/05/19 06:07:48;;;;;;;7.55;2.75;;;;;;;;;;7416112;19;20043;-95
2022/05/19 06:10:14;;;;;;;10.98;3.38;;;;;;;;;;7416864;19;20006;-94
2022/05/19 06:12:40;;;;;;;6.07;2.95;;;;;;;;;;7417493;19;20001;-94
2022/05/19 06:15:06;;;;;;;8.57;3.88;;;;;;;;;;7418845;19;20007;-94
2022/05/19 06:17:32;;;;;;;5.93;3.05;;;;;;;;;;7425102;19;20002;-92
2022/05/19 06:19:57;;;;;;;6.22;2.97;;;;;;;;;;7427880;19;19991;-91
2022/05/19 06:22:22;;;;;;;8.68;3.38;;;;;;;;;;7429468;19;20003;-92
2022/05/19 06:24:48;;;;;;;11.98;3.42;;;;;;;;;;7408566;19;20043;-93
2022/05/19 06:27:13;;;;;;;12.98;3.47;;;;;;;;;;7392348;19;20003;-94
2022/05/19 06:29:39;;;;;;;6.10;2.80;;;;;;;;;;7402310;19;20018;-95
2022/05/19 06:32:04;;;;;;;7.35;3.38;;;;;;;;;;7402279;19;20377;-94
2022/05/19 06:34:30;;;;;;;6.53;2.90;;;;;;;;;;7400042;19;20471;-93
2022/05/19 06:36:56;;;;;;;6.32;3.15;;;;;;;;;;7394326;19;20054;-93
2022/05/19 06:39:21;;;;;;;10.00;3.45;;;;;;;;;;7392201;19;20033;-93
2022/05/19 06:42:01;;;;;;;9.13;3.42;;;;;;;;;;7393627;19;20482;-93
2022/05/19 06:44:31;;;;;;;8.13;2.95;;;;;;;;;;7392856;19;20010;-93
2022/05/19 06:46:56;;;;;;;6.45;3.33;;;;;;;;;;7389962;19;20021;-92
2022/05/19 06:49:22;;;;;;;7.05;3.20;;;;;;;;;;7387018;19;20365;-92
2022/05/19 06:51:47;;;;;;;8.52;3.85;;;;;;;;;;7389787;19;20017;-93
2022/05/19 06:54:13;;;;;;;8.48;3.30;;;;;;;;;;7386784;19;20153;-93
2022/05/19 06:56:39;;;;;;;6.35;3.00;;;;;;;;;;7388759;19;20571;-93
2022/05/19 06:59:04;;;;;;;6.00;2.88;;;;;;;;;;7388036;19;20033;-93
2022/05/19 07:01:29;;;;;;;7.28;3.10;;;;;;;;;;7387589;19;19998;-94
2022/05/19 07:03:56;;;;;;;6.47;3.08;;;;;;;;;;7389120;19;20002;-95
2022/05/19 07:06:22;;;;;;;7.00;3.50;;;;;;;;;;7389289;19;20039;-93
2022/05/19 07:08:47;;;;;;;7.45;3.33;;;;;;;;;;7385599;19;20353;-93
2022/05/19 07:11:24;;;;;;;7.40;3.75;;;;;;;;;;7385841;19;20368;-94
2022/05/19 07:14:01;;;;;;;8.95;2.72;;;;;;;;;;7392654;19;20019;-93
2022/05/19 07:16:27;;;;;;;9.68;3.13;;;;;;;;;;7391649;19;20030;-94
2022/05/19 07:20:43;;;;;;;8.38;2.75;;;;;;;;;;7391246;19;20014;-94
2022/05/19 07:21:37;;;;;;;6.82;2.97;;;;;;;;;;7393753;19;20014;-94
2022/05/19 07:24:03;;;;;;;6.85;3.08;;;;;;;;;;7394187;19;20447;-93
2022/05/19 07:26:28;;;;;;;9.00;3.67;;;;;;;;;;7393628;19;20447;-94
2022/05/19 07:28:53;;;;;;;6.43;2.97;;;;;;;;;;7393458;19;20009;-95
2022/05/19 07:31:19;;;;;;;5.82;3.10;;;;;;;;;;7392647;19;20603;-93
2022/05/19 07:33:44;;;;;;;6.57;3.10;;;;;;;;;;7392790;19;20710;-95
2022/05/19 07:36:10;;;;;;;7.82;2.90;;;;;;;;;;7391474;19;20444;-94
2022/05/19 07:38:35;;;;;;;6.15;3.00;;;;;;;;;;7393005;19;19994;-95
2022/05/19 07:41:03;;;;;;;7.60;3.20;;;;;;;;;;7391920;19;20641;-94
2022/05/19 07:43:37;;;;;;;8.38;3.10;;;;;;;;;;7391593;19;20010;-93
2022/05/19 07:46:03;;;;;;;6.22;3.17;;;;;;;;;;7394176;19;20011;-95
2022/05/19 07:48:29;;;;;;;8.38;3.30;;;;;;;;;;7391730;19;20014;-95
2022/05/19 07:50:54;;;;;;;6.70;3.10;;;;;;;;;;7393330;19;20018;-94
2022/05/19 07:53:20;;;;;;;7.45;3.08;;;;;;;;;;7391691;19;19999;-94
2022/05/19 07:55:45;;;;;;;6.75;2.83;;;;;;;;;;7390547;19;20018;-94
2022/05/19 07:58:11;;;;;;;6.95;3.30;;;;;;;;;;7391184;19;20018;-95
2022/05/19 08:00:36;;;;;;;8.80;3.13;;;;;;;;;;7391174;19;20015;-94
2022/05/19 08:03:01;;;;;;;5.70;2.75;;;;;;;;;;7392612;19;20067;-93
2022/05/19 08:05:27;;;;;;;6.28;3.03;;;;;;;;;;7405656;19;20002;-94
2022/05/19 08:07:52;;;;;;;8.57;3.15;;;;;;;;;;7391827;19;20023;-95
2022/05/19 08:10:20;;;;;;;6.60;2.90;;;;;;;;;;7392118;19;20002;-93
2022/05/19 08:15:35;;;;;;;7.28;3.13;;;;;;;;;;7391900;19;20026;-94
2022/05/19 08:18:06;;;;;;;5.15;2.75;;;;;;;;;;7389943;19;20565;-95
2022/05/19 08:20:31;;;;;;;5.80;2.95;;;;;;;;;;7393242;19;20006;-95
2022/05/19 08:22:57;;;;;;;6.97;3.00;;;;;;;;;;7391015;19;20408;-94
2022/05/19 08:25:26;;;;;;;7.40;3.10;;;;;;;;;;7390435;19;20011;-95
2022/05/19 08:27:52;;;;;;;6.60;2.78;;;;;;;;;;7391624;19;20047;-94
2022/05/19 08:30:18;;;;;;;8.45;2.70;;;;;;;;;;7392511;19;19998;-95
2022/05/19 08:32:43;;;;;;;6.65;3.00;;;;;;;;;;7389014;19;20002;-95
2022/05/19 08:35:08;;;;;;;6.50;2.70;;;;;;;;;;7390677;19;19994;-94
2022/05/19 08:37:34;;;;;;;6.35;2.92;;;;;;;;;;7389589;19;20014;-94
2022/05/19 08:39:59;;;;;;;6.90;3.20;;;;;;;;;;7389666;19;20905;-94
2022/05/19 08:42:27;;;;;;;6.78;2.78;;;;;;;;;;7390936;19;20027;-94
2022/05/19 08:44:54;;;;;;;9.18;3.03;;;;;;;;;;7390745;19;20392;-95
2022/05/19 08:47:22;;;;;;;8.68;2.92;;;;;;;;;;7392008;19;20010;-93
2022/05/19 08:49:50;;;;;;;6.07;3.03;;;;;;;;;;7390784;19;20049;-93
2022/05/19 08:52:16;;;;;;;7.63;3.35;;;;;;;;;;7398023;19;20014;-95
2022/05/19 08:54:43;;;;;;;5.95;2.88;;;;;;;;;;7397618;19;20002;-96
2022/05/19 08:57:11;;;;;;;7.07;2.80;;;;;;;;;;7397669;19;20011;-96
2022/05/19 08:59:39;;;;;;;9.43;3.30;;;;;;;;;;7396851;19;20010;-96
2022/05/19 09:02:06;;;;;;;6.90;2.60;;;;;;;;;;7396532;19;20018;-95
2022/05/19 09:04:34;;;;;;;7.88;3.10;;;;;;;;;;7395528;19;20003;-95
2022/05/19 09:09:53;;;;;;;7.13;3.17;;;;;;;;;;7400481;19;19986;-96
2022/05/19 09:12:20;;;;;;;5.75;2.70;;;;;;;;;;7398450;19;20038;-95
2022/05/19 09:14:46;;;;;;;10.30;3.17;;;;;;;;;;7399537;19;20015;-95
2022/05/19 09:17:12;;;;;;;8.82;2.88;;;;;;;;;;7400848;19;20013;-96
2022/05/19 09:19:39;;;;;;;8.35;3.20;;;;;;;;;;7399046;19;20360;-94
2022/05/19 09:22:08;;;;;;;7.85;2.70;;;;;;;;;;7396262;19;20006;-94
2022/05/19 09:24:34;;;;;;;8.65;3.30;;;;;;;;;;7400932;19;20010;-95
2022/05/19 09:27:00;;;;;;;8.63;3.15;;;;;;;;;;7400983;19;20033;-95
2022/05/19 09:29:31;;;;;;;7.78;2.92;;;;;;;;;;7405018;19;20010;-95
2022/05/19 09:32:14;;;;;;;9.68;3.38;;;;;;;;;;7404421;19;20106;-95
2022/05/19 09:34:41;;;;;;;7.18;3.10;;;;;;;;;;7402942;19;20011;-95
2022/05/19 09:37:07;;;;;;;6.90;3.25;;;;;;;;;;7403948;19;19999;-94
2022/05/19 09:39:35;;;;;;;8.90;3.30;;;;;;;;;;7424232;19;20001;-95
2022/05/19 09:42:05;;;;;;;9.13;3.40;;;;;;;;;;7425075;19;20010;-95
2022/05/19 09:44:32;;;;;;;6.28;3.13;;;;;;;;;;7423325;19;19994;-96
2022/05/19 09:46:57;;;;;;;6.80;3.33;;;;;;;;;;7396834;19;20066;-95
2022/05/19 09:49:29;;;;;;;7.45;3.15;;;;;;;;;;7391919;19;20018;-96
2022/05/19 09:51:59;;;;;;;9.70;3.15;;;;;;;;;;7392738;19;19991;-96
2022/05/19 09:54:27;;;;;;;8.88;3.38;;;;;;;;;;7392568;19;20394;-96
2022/05/19 09:56:53;;;;;;;9.57;2.83;;;;;;;;;;7394953;19;20002;-95
2022/05/19 09:59:23;;;;;;;8.18;2.85;;;;;;;;;;7401453;19;20345;-95
2022/05/19 10:01:50;;;;;;;7.50;3.00;;;;;;;;;;7398133;19;20091;-95
2022/05/19 10:04:24;;;;;;;11.32;3.35;;;;;;;;;;7399526;19;20070;-95
2022/05/19 10:06:51;;;;;;;8.52;3.25;;;;;;;;;;7397743;19;20021;-95
2022/05/19 10:09:21;;;;;;;7.80;2.97;;;;;;;;;;7399830;19;20011;-93
2022/05/19 10:11:48;;;;;;;8.70;3.30;;;;;;;;;;7394430;19;20078;-95
2022/05/19 10:14:32;;;;;;;7.32;3.03;;;;;;;;;;7402047;19;20031;-94
2022/05/19 10:17:00;;;;;;;7.47;2.95;;;;;;;;;;7401946;19;20005;-95
2022/05/19 10:19:35;;;;;;;6.85;3.55;;;;;;;;;;7399058;19;20006;-94
2022/05/19 10:22:03;;;;;;;7.82;3.40;;;;;;;;;;7401832;19;19995;-95
2022/05/19 10:24:47;;;;;;;6.25;3.00;;;;;;;;;;7412320;19;20007;-95
2022/05/19 10:33:19;;;;;;;7.45;3.30;;;;;;;;;;7394614;19;20459;-95
2022/05/19 10:36:03;;;;;;;14.43;3.73;;;;;;;;;;7394590;19;20006;-95
2022/05/19 10:38:42;;;;;;;8.70;3.58;;;;;;;;;;7394869;19;20263;-95
2022/05/19 10:41:26;;;;;;;7.65;3.30;;;;;;;;;;7392224;19;19998;-95
2022/05/19 10:44:00;;;;;;;8.63;3.15;;;;;;;;;;7392926;19;20013;-94
2022/05/19 10:46:29;;;;;;;6.43;3.38;;;;;;;;;;7401040;19;20002;-96
2022/05/19 10:49:01;;;;;;;19.20;4.38;;;;;;;;;;7410629;19;20006;-96
2022/05/19 10:51:45;;;;;;;8.48;3.10;;;;;;;;;;7415996;19;20014;-95
2022/05/19 10:54:23;;;;;;;8.02;3.20;;;;;;;;;;7423412;19;19999;-95
2022/05/19 10:57:01;;;;;;;9.32;3.40;;;;;;;;;;7423009;19;20010;-94
2022/05/19 10:59:26;;;;;;;9.05;3.65;;;;;;;;;;7424560;19;20010;-94
2022/05/19 11:02:11;;;;;;;12.20;3.57;;;;;;;;;;7423428;19;19991;-93
2022/05/19 11:04:51;;;;;;;7.68;3.20;;;;;;;;;;7423486;19;20287;-92
2022/05/19 11:07:16;;;;;;;7.53;3.33;;;;;;;;;;7425242;19;19998;-95
2022/05/19 11:09:44;;;;;;;11.80;3.20;;;;;;;;;;7425161;19;20006;-94
2022/05/19 11:12:25;;;;;;;6.15;3.03;;;;;;;;;;7405065;19;19995;-95
2022/05/19 11:14:56;;;;;;;9.32;3.85;;;;;;;;;;7396375;19;20018;-96
2022/05/19 11:17:41;;;;;;;12.60;3.10;;;;;;;;;;7395308;19;20066;-94
2022/05/19 11:20:17;;;;;;;9.10;3.83;;;;;;;;;;7401038;19;20015;-95
2022/05/19 11:22:42;;;;;;;8.32;3.75;;;;;;;;;;7396358;19;20009;-95
2022/05/19 11:28:22;;;;;;;11.48;3.67;;;;;;;;;;7392741;19;20018;-94
2022/05/19 11:30:52;;;;;;;7.75;3.38;;;;;;;;;;7389758;19;20014;-96
2022/05/19 11:33:22;;;;;;;8.38;3.50;;;;;;;;;;7389697;19;19991;-96
2022/05/19 11:35:54;;;;;;;11.38;3.75;;;;;;;;;;7388091;19;20018;-95
2022/05/19 11:38:19;;;;;;;5.40;3.20;;;;;;;;;;7390004;19;20066;-96
2022/05/19 11:40:50;;;;;;;7.93;3.30;;;;;;;;;;7393595;19;20014;-96
2022/05/19 11:43:15;;;;;;;10.65;3.60;;;;;;;;;;7390233;19;20263;-94
2022/05/19 11:45:48;;;;;;;8.57;3.30;;;;;;;;;;7391489;19;20003;-96
2022/05/19 11:57:09;;;;;;;6.47;3.58;;;;;;;;;;7392043;19;20043;-94
2022/05/19 11:59:35;;;;;;;12.27;4.13;;;;;;;;;;7390912;19;20007;-93
2022/05/19 12:02:00;;;;;;;9.27;3.42;;;;;;;;;;7389674;19;20015;-94
2022/05/19 12:04:28;;;;;;;9.98;3.53;;;;;;;;;;7392231;19;20018;-94
2022/05/19 12:07:07;;;;;;;8.15;3.85;;;;;;;;;;7392694;19;20010;-94
2022/05/19 12:09:39;;;;;;;14.48;3.58;;;;;;;;;;7390785;19;20018;-94
2022/05/19 12:12:14;;;;;;;9.20;3.45;;;;;;;;;;7400028;19;20029;-93
2022/05/19 12:14:42;;;;;;;8.30;3.42;;;;;;;;;;7401352;19;20006;-94
2022/05/19 12:17:20;;;;;;;11.13;3.53;;;;;;;;;;7391786;19;20033;-95
2022/05/19 12:19:54;;;;;;;11.77;4.10;;;;;;;;;;7389231;19;20015;-94
2022/05/19 12:22:34;;;;;;;11.63;3.70;;;;;;;;;;7390536;19;20014;-94
2022/05/19 12:25:08;;;;;;;11.75;3.80;;;;;;;;;;7392511;19;20552;-94
2022/05/19 12:27:41;;;;;;;8.60;3.78;;;;;;;;;;7398254;19;20018;-92
2022/05/19 12:33:22;;;;;;;8.25;3.38;;;;;;;;;;7398520;19;20074;-95
2022/05/19 12:35:48;;;;;;;8.32;3.28;;;;;;;;;;7398948;19;20149;-94
2022/05/19 12:38:26;;;;;;;8.82;3.50;;;;;;;;;;7396686;19;20062;-92
2022/05/19 12:40:55;;;;;;;11.35;4.10;;;;;;;;;;7394825;19;20026;-95
2022/05/19 12:43:21;;;;;;;10.65;3.78;;;;;;;;;;7395834;19;20014;-94
2022/05/19 12:46:13;;;;;;;9.68;4.20;;;;;;;;;;7394137;19;20029;-94
2022/05/19 12:48:38;;;;;;;8.88;4.40;;;;;;;;;;7393636;19;20010;-95
2022/05/19 12:51:11;;;;;;;11.40;4.07;;;;;;;;;;7400282;19;20027;-94
2022/05/19 12:53:52;;;;;;;7.75;3.50;;;;;;;;;;7396864;19;20268;-95
2022/05/19 12:56:36;;;;;;;8.35;4.05;;;;;;;;;;7394750;19;20018;-93
2022/05/19 12:59:27;;;;;;;10.90;4.07;;;;;;;;;;7394337;19;19998;-93
2022/05/19 13:01:54;;;;;;;15.05;4.20;;;;;;;;;;7390519;19;20010;-93
2022/05/19 13:04:25;;;;;;;10.43;3.90;;;;;;;;;;7392661;19;20025;-93
2022/05/19 13:06:53;;;;;;;10.13;4.15;;;;;;;;;;7393752;19;20010;-93
2022/05/19 13:09:21;;;;;;;6.93;4.25;;;;;;;;;;7395002;19;20475;-94
2022/05/19 13:11:52;;;;;;;8.10;3.80;;;;;;;;;;7389249;19;20009;-94
2022/05/19 13:14:20;;;;;;;21.95;4.78;;;;;;;;;;7392409;19;20010;-94
2022/05/19 13:16:51;;;;;;;10.43;3.80;;;;;;;;;;7389332;19;20028;-93
2022/05/19 13:19:24;;;;;;;8.40;3.92;;;;;;;;;;7390898;19;20007;-95
2022/05/19 13:21:55;;;;;;;9.30;3.97;;;;;;;;;;7391565;19;20142;-94
2022/05/19 13:24:24;;;;;;;12.52;4.55;;;;;;;;;;7389780;19;20034;-94
2022/05/19 13:30:20;;;;;;;9.70;4.30;;;;;;;;;;7390822;19;20421;-94
2022/05/19 13:32:24;;;;;;;10.43;4.63;;;;;;;;;;7392054;19;20011;-93
2022/05/19 13:34:50;;;;;;;10.68;4.68;;;;;;;;;;7389401;19;20018;-94
2022/05/19 13:37:28;;;;;;;9.18;4.22;;;;;;;;;;7390714;19;20032;-95
2022/05/19 13:40:16;;;;;;;17.45;3.90;;;;;;;;;;7391167;19;20086;-95
2022/05/19 13:43:01;;;;;;;22.35;4.10;;;;;;;;;;7398518;19;20041;-94
2022/05/19 13:45:35;;;;;;;15.35;4.15;;;;;;;;;;7396008;19;20013;-94
2022/05/19 13:48:00;;;;;;;;;;;;;;;;;;7395905;19;20014;-91
2022/05/19 13:50:26;;;;;;;14.00;3.77;;;;;;;;;;7392319;19;20358;-93
2022/05/19 13:52:56;;;;;;;12.85;3.63;;;;;;;;;;7386667;19;20010;-92
2022/05/19 13:55:23;;;;;;;9.38;3.35;;;;;;;;;;7391285;19;20003;-92
2022/05/19 13:57:49;;;;;;;15.20;4.55;;;;;;;;;;7394034;19;20010;-93
2022/05/19 14:00:15;;;;;;;23.90;5.22;;;;;;;;;;7393718;19;20011;-94
2022/05/19 14:02:47;;;;;;;26.83;5.47;;;;;;;;;;7390922;19;20030;-95
2022/05/19 14:05:20;;;;;;;10.80;4.07;;;;;;;;;;7391295;19;20515;-92
2022/05/19 14:07:48;;;;;;;14.95;4.82;;;;;;;;;;7390574;19;20022;-92
2022/05/19 14:10:15;;;;;;;16.17;5.53;;;;;;;;;;7387069;19;20006;-93
2022/05/19 14:12:54;;;;;;;14.07;5.13;;;;;;;;;;7389307;19;20492;-94
2022/05/19 14:15:32;;;;;;;21.13;5.13;;;;;;;;;;7396989;19;20003;-93
2022/05/19 14:17:57;;;;;;;13.10;5.30;;;;;;;;;;7394586;19;20021;-94
2022/05/19 14:20:28;;;;;;;16.45;4.47;;;;;;;;;;7393841;19;20010;-94
2022/05/19 14:22:54;;;;;;;10.82;3.63;;;;;;;;;;7394850;19;20018;-94
2022/05/19 14:25:21;;;;;;;13.02;3.83;;;;;;;;;;7394773;19;20495;-93
2022/05/19 14:27:48;;;;;;;10.02;3.90;;;;;;;;;;7394304;19;20013;-92
2022/05/19 14:30:15;;;;;;;11.68;4.20;;;;;;;;;;7398685;19;20014;-93
2022/05/19 14:32:50;;;;;;;12.88;4.00;;;;;;;;;;7396564;19;20050;-92
2022/05/19 14:35:21;;;;;;;11.98;4.28;;;;;;;;;;7418168;19;19999;-93
2022/05/19 14:37:50;;;;;;;11.25;3.92;;;;;;;;;;7391073;19;20003;-92
2022/05/19 14:43:08;;;;;;;19.08;4.55;;;;;;;;;;7396587;19;20450;-94
2022/05/19 14:45:56;;;;;;;15.27;4.43;;;;;;;;;;7392664;19;20007;-94
2022/05/19 14:48:40;;;;;;;10.40;4.03;;;;;;;;;;7390083;19;20013;-94
2022/05/19 14:51:16;;;;;;;9.15;4.18;;;;;;;;;;7394642;19;20011;-95
2022/05/19 14:53:43;;;;;;;9.43;3.60;;;;;;;;;;7393444;19;20010;-94
2022/05/19 14:56:11;;;;;;;9.68;3.45;;;;;;;;;;7392386;19;20031;-93
2022/05/19 14:58:44;;;;;;;11.80;3.60;;;;;;;;;;7394620;19;20007;-95
2022/05/19 15:01:09;;;;;;;9.70;3.65;;;;;;;;;;7395387;19;20094;-94
2022/05/19 15:03:35;;;;;;;12.55;3.60;;;;;;;;;;7393451;19;19999;-94
2022/05/19 15:06:00;;;;;;;13.70;4.70;;;;;;;;;;7395581;19;20484;-94
2022/05/19 15:08:28;;;;;;;9.77;3.20;;;;;;;;;;7394515;19;19999;-95
2022/05/19 15:10:53;;;;;;;13.93;5.88;;;;;;;;;;7389898;19;20070;-96
2022/05/19 15:13:19;;;;;;;9.10;4.03;;;;;;;;;;7390748;19;20012;-95
2022/05/19 15:15:45;;;;;;;13.75;6.07;;;;;;;;;;7392958;19;20436;-93
2022/05/19 15:18:10;;;;;;;14.60;6.35;;;;;;;;;;7394821;19;20014;-95
2022/05/19 15:20:36;;;;;;;14.15;4.82;;;;;;;;;;7401893;19;20009;-95